Time;durP1;ratioP1;P1;durP2;ratioP2;P2;SDS_P1;SDS_P2;PMS_P1;PMS_P2;Temp;Humidity;BMP_temperature;BMP_pressure;BME280_temperature;BME280_humidity;BME280_pressure;Samples;Min_cycle;Max_cycle;Signal;HPM_P1;HPM_P2
2022/01/22 00:02:00;;;;;;;8.00;5.27;;;5.10;99.90;;;;;;5053523;28;20693;-62
2022/01/22 00:04:27;;;;;;;7.93;5.23;;;5.20;99.90;;;;;;5052660;28;20212;-62
2022/01/22 00:06:55;;;;;;;9.80;5.30;;;5.20;99.90;;;;;;5053197;28;20213;-64
2022/01/22 00:09:25;;;;;;;10.07;5.67;;;5.30;99.90;;;;;;5053070;28;20229;-63
2022/01/22 00:11:53;;;;;;;7.97;5.27;;;5.40;99.90;;;;;;5053154;28;20229;-63
2022/01/22 00:14:23;;;;;;;7.47;5.60;;;5.40;99.90;;;;;;5053176;28;20241;-63
2022/01/22 00:16:51;;;;;;;9.63;5.70;;;5.50;99.90;;;;;;5052849;28;20723;-63
2022/01/22 00:19:17;;;;;;;12.27;6.70;;;5.50;99.90;;;;;;5052584;28;20584;-62
2022/01/22 00:21:45;;;;;;;10.27;5.93;;;5.60;99.90;;;;;;5052906;28;20210;-62
2022/01/22 00:24:13;;;;;;;11.70;6.23;;;5.60;99.90;;;;;;5052855;28;20202;-62
2022/01/22 00:26:41;;;;;;;9.23;5.40;;;5.50;99.90;;;;;;5052581;28;20221;-61
2022/01/22 00:29:08;;;;;;;8.67;5.43;;;5.50;99.90;;;;;;5052454;28;20225;-62
2022/01/22 00:31:35;;;;;;;8.83;5.07;;;5.60;99.90;;;;;;5052659;28;20205;-62
2022/01/22 00:34:01;;;;;;;11.80;5.63;;;5.60;99.90;;;;;;5052390;28;20296;-62
2022/01/22 00:36:28;;;;;;;11.73;6.10;;;5.70;99.90;;;;;;5052490;28;20272;-63
2022/01/22 00:38:55;;;;;;;9.73;5.93;;;5.60;99.90;;;;;;5052391;28;20616;-62
2022/01/22 00:41:22;;;;;;;8.83;6.20;;;5.70;99.90;;;;;;5052545;28;20210;-62
2022/01/22 00:43:50;;;;;;;8.60;6.07;;;5.80;99.90;;;;;;5052438;28;20213;-63
2022/01/22 00:46:16;;;;;;;8.37;5.57;;;5.80;99.90;;;;;;5052047;28;20233;-63
2022/01/22 00:48:44;;;;;;;9.30;5.70;;;5.80;99.90;;;;;;5051306;28;20233;-63
2022/01/22 00:51:11;;;;;;;9.43;6.10;;;5.80;99.90;;;;;;5052415;28;20221;-63
2022/01/22 00:53:38;;;;;;;9.00;5.87;;;5.80;99.90;;;;;;5052698;28;20263;-63
2022/01/22 00:56:05;;;;;;;7.70;5.60;;;5.80;99.90;;;;;;5052617;28;20225;-63
2022/01/22 00:58:32;;;;;;;10.10;5.50;;;5.80;99.90;;;;;;5052286;28;20205;-63
2022/01/22 01:01:00;;;;;;;11.13;5.97;;;5.80;99.90;;;;;;5052214;28;20221;-61
2022/01/22 01:03:31;;;;;;;11.00;5.53;;;5.80;99.90;;;;;;5052040;28;20524;-62
2022/01/22 01:05:57;;;;;;;8.43;5.77;;;5.80;99.90;;;;;;5051737;28;20268;-63
2022/01/22 01:08:24;;;;;;;8.33;5.63;;;5.80;99.90;;;;;;5052342;28;20647;-62
2022/01/22 01:10:52;;;;;;;10.47;5.90;;;5.80;99.90;;;;;;5052088;28;20264;-63
2022/01/22 01:13:18;;;;;;;10.87;5.70;;;5.80;99.90;;;;;;5051860;28;20237;-62
2022/01/22 01:15:57;;;;;;;9.93;6.30;;;5.90;99.90;;;;;;5051636;28;20299;-62
2022/01/22 01:34:52;;;;;;;12.17;6.20;;;6.00;99.90;;;;;;5051283;28;20247;-62
2022/01/22 01:37:20;;;;;;;8.17;6.10;;;6.00;99.90;;;;;;5051769;28;20217;-63
2022/01/22 01:39:50;;;;;;;9.43;6.23;;;6.00;99.90;;;;;;5051622;28;20672;-62
2022/01/22 01:42:22;;;;;;;8.80;6.47;;;6.10;99.90;;;;;;5051745;28;20607;-63
2022/01/22 01:44:49;;;;;;;13.23;6.90;;;6.10;99.90;;;;;;5051291;28;20313;-62
2022/01/22 01:47:17;;;;;;;9.60;6.67;;;6.10;99.90;;;;;;5051293;28;20574;-62
2022/01/22 01:49:45;;;;;;;8.93;6.60;;;6.10;99.90;;;;;;5051455;28;20260;-62
2022/01/22 01:52:18;;;;;;;11.23;6.53;;;6.10;99.90;;;;;;5051522;28;20288;-62
2022/01/22 01:54:58;;;;;;;12.00;7.37;;;6.20;99.90;;;;;;5051286;28;20321;-62
2022/01/22 02:00:11;;;;;;;13.53;6.70;;;6.20;99.90;;;;;;5052378;28;20663;-62
2022/01/22 02:02:39;;;;;;;13.90;7.00;;;6.20;99.90;;;;;;5055435;28;20222;-62
2022/01/22 02:05:08;;;;;;;13.70;7.40;;;6.20;99.90;;;;;;5054879;28;20709;-63
2022/01/22 02:07:39;;;;;;;13.87;7.33;;;6.20;99.90;;;;;;5055015;28;20205;-63
2022/01/22 02:10:07;;;;;;;12.83;7.50;;;6.20;99.90;;;;;;5055551;28;20229;-63
2022/01/22 02:13:00;;;;;;;11.37;7.57;;;6.10;99.90;;;;;;5055203;28;20209;-63
2022/01/22 02:23:47;;;;;;;17.93;8.03;;;6.10;99.90;;;;;;5054967;28;20580;-63
2022/01/22 02:26:16;;;;;;;11.27;6.70;;;6.00;99.90;;;;;;5054402;28;20775;-62
2022/01/22 02:28:47;;;;;;;12.47;7.50;;;6.00;99.90;;;;;;5054643;28;20225;-62
2022/01/22 02:31:20;;;;;;;11.10;7.07;;;6.10;99.90;;;;;;5054858;28;20304;-62
2022/01/22 02:33:52;;;;;;;10.50;6.73;;;6.00;99.90;;;;;;5054873;28;20296;-62
2022/01/22 02:36:25;;;;;;;10.90;7.00;;;6.00;99.90;;;;;;5054558;28;20283;-65
2022/01/22 02:39:02;;;;;;;11.33;7.50;;;6.00;99.90;;;;;;5054691;28;20204;-63
2022/01/22 02:41:29;;;;;;;10.33;6.67;;;5.90;99.90;;;;;;5054942;28;20206;-62
2022/01/22 02:43:56;;;;;;;11.20;7.27;;;5.90;99.90;;;;;;5054492;28;20704;-63
2022/01/22 02:46:26;;;;;;;10.50;6.57;;;5.90;99.90;;;;;;5054347;28;20261;-62
2022/01/22 02:48:54;;;;;;;11.00;6.97;;;5.90;99.90;;;;;;5054522;28;20222;-62
2022/01/22 02:51:23;;;;;;;11.33;7.27;;;5.90;99.90;;;;;;5054238;28;20255;-62
2022/01/22 02:53:53;;;;;;;10.37;7.13;;;6.00;99.90;;;;;;5054541;28;20582;-63
2022/01/22 02:56:21;;;;;;;10.63;7.23;;;6.10;99.90;;;;;;5054162;28;20233;-62
2022/01/22 02:58:48;;;;;;;12.10;7.20;;;6.10;99.90;;;;;;5054199;28;20239;-63
2022/01/22 03:01:16;;;;;;;12.43;7.63;;;6.00;99.90;;;;;;5054263;28;20677;-62
2022/01/22 03:03:43;;;;;;;13.13;7.90;;;6.00;99.90;;;;;;5056128;28;20263;-62
2022/01/22 03:06:10;;;;;;;10.30;7.20;;;6.00;99.90;;;;;;5056065;28;20237;-62
2022/01/22 03:08:40;;;;;;;12.20;7.90;;;6.00;99.90;;;;;;5056048;28;20221;-62
2022/01/22 03:11:17;;;;;;;11.30;7.90;;;6.10;99.90;;;;;;5054064;28;20666;-62
2022/01/22 03:14:29;;;;;;;10.77;7.60;;;6.10;99.90;;;;;;5054984;28;20614;-62
2022/01/22 03:16:58;;;;;;;11.70;8.30;;;6.10;99.90;;;;;;5053920;28;20577;-62
2022/01/22 03:19:56;;;;;;;12.07;8.20;;;6.10;99.90;;;;;;5054418;28;20293;-62
2022/01/22 03:22:26;;;;;;;10.87;7.60;;;6.10;99.90;;;;;;5054244;28;20691;-63
2022/01/22 03:27:39;;;;;;;12.63;8.60;;;6.10;99.90;;;;;;5055591;28;20267;-62
2022/01/22 03:30:08;;;;;;;14.03;8.87;;;6.10;99.90;;;;;;5056157;28;20314;-63
2022/01/22 03:32:39;;;;;;;13.00;8.07;;;6.10;99.90;;;;;;5054160;28;20588;-63
2022/01/22 03:35:11;;;;;;;12.07;7.90;;;6.10;99.90;;;;;;5053741;28;20229;-61
2022/01/22 03:37:39;;;;;;;13.73;8.73;;;6.10;99.90;;;;;;5055182;28;20218;-62
2022/01/22 03:40:09;;;;;;;12.20;8.43;;;6.10;99.90;;;;;;5055034;28;20202;-62
2022/01/22 03:42:36;;;;;;;13.27;8.60;;;6.10;99.90;;;;;;5055789;28;20292;-61
2022/01/22 03:45:03;;;;;;;12.53;8.37;;;6.20;99.90;;;;;;5056273;28;20225;-62
2022/01/22 03:47:29;;;;;;;12.47;8.77;;;6.10;99.90;;;;;;5055686;28;20206;-62
2022/01/22 03:49:56;;;;;;;11.97;8.67;;;6.20;99.90;;;;;;5054619;28;20233;-62
2022/01/22 03:52:23;;;;;;;13.73;8.67;;;6.20;99.90;;;;;;5054566;28;20213;-62
2022/01/22 03:54:49;;;;;;;13.13;8.27;;;6.20;99.90;;;;;;5055639;28;20279;-63
2022/01/22 03:57:18;;;;;;;13.90;9.27;;;6.10;99.90;;;;;;5054867;28;20216;-62
2022/01/22 03:59:46;;;;;;;12.37;8.60;;;6.10;99.90;;;;;;5054801;28;20201;-62
2022/01/22 04:05:01;;;;;;;16.27;8.73;;;6.00;99.90;;;;;;5053422;28;20232;-62
2022/01/22 04:10:20;;;;;;;13.40;8.87;;;6.10;99.90;;;;;;5046980;28;20236;-62
2022/01/22 04:12:54;;;;;;;12.90;8.60;;;6.10;99.90;;;;;;5052837;28;20206;-62
2022/01/22 04:15:25;;;;;;;10.87;8.50;;;6.20;99.90;;;;;;5052740;28;20316;-62
2022/01/22 04:26:14;;;;;;;14.00;8.33;;;6.30;99.90;;;;;;5052353;28;20264;-62
2022/01/22 04:28:42;;;;;;;11.73;8.93;;;6.20;99.90;;;;;;5052661;28;20209;-62
2022/01/22 04:31:09;;;;;;;11.47;8.73;;;6.30;99.90;;;;;;5052776;28;20210;-62
2022/01/22 04:33:35;;;;;;;11.93;8.87;;;6.30;99.90;;;;;;5052458;28;20213;-62
2022/01/22 04:36:02;;;;;;;11.80;8.43;;;6.30;99.90;;;;;;5052279;28;20225;-63
2022/01/22 04:38:29;;;;;;;11.73;8.90;;;6.40;99.90;;;;;;5052472;28;20220;-61
2022/01/22 04:40:55;;;;;;;12.80;9.13;;;6.30;99.90;;;;;;5052559;28;20244;-62
2022/01/22 04:43:22;;;;;;;11.90;8.23;;;6.40;99.90;;;;;;5052532;28;20456;-63
2022/01/22 04:46:05;;;;;;;12.90;9.33;;;6.40;99.90;;;;;;5052379;28;20229;-63
2022/01/22 04:48:43;;;;;;;13.87;8.63;;;6.40;99.90;;;;;;5052518;28;20756;-62
2022/01/22 04:56:39;;;;;;;10.87;9.30;;;6.50;99.90;;;;;;5051883;28;20224;-62
2022/01/22 04:59:06;;;;;;;15.43;8.43;;;6.40;99.90;;;;;;5052352;28;20209;-62
2022/01/22 05:01:34;;;;;;;14.80;9.40;;;6.50;99.90;;;;;;5052179;28;20209;-63
2022/01/22 05:04:01;;;;;;;15.73;9.53;;;6.50;99.90;;;;;;5051963;28;20547;-64
2022/01/22 05:06:29;;;;;;;14.33;9.00;;;6.50;99.90;;;;;;5076299;22;20230;-58
2022/01/22 05:08:56;;;;;;;12.43;8.90;;;6.40;99.90;;;;;;5051908;28;20208;-57
2022/01/22 05:11:24;;;;;;;12.33;9.43;;;6.30;99.90;;;;;;5051991;28;20213;-57
2022/01/22 05:13:50;;;;;;;11.77;8.97;;;6.40;99.90;;;;;;5052071;28;20628;-57
2022/01/22 05:16:17;;;;;;;12.53;9.03;;;6.40;99.90;;;;;;5051674;28;20221;-58
2022/01/22 05:18:52;;;;;;;11.60;9.20;;;6.40;99.90;;;;;;5051962;28;20259;-57
2022/01/22 05:21:19;;;;;;;12.57;9.03;;;6.40;99.90;;;;;;5051810;28;20247;-58
2022/01/22 05:23:47;;;;;;;12.67;9.33;;;6.40;99.90;;;;;;5052135;28;20205;-58
2022/01/22 05:26:39;;;;;;;13.73;9.10;;;6.40;99.90;;;;;;5051673;28;20739;-58
2022/01/22 05:29:56;;;;;;;13.97;9.70;;;6.30;99.90;;;;;;5051856;28;20210;-58
2022/01/22 05:32:30;;;;;;;13.77;9.00;;;6.40;99.90;;;;;;5051568;28;20205;-58
2022/01/22 05:37:42;;;;;;;11.23;8.73;;;6.30;99.90;;;;;;5055872;28;20684;-58
2022/01/22 05:40:10;;;;;;;14.97;9.07;;;6.30;99.90;;;;;;5055643;28;20210;-58
2022/01/22 05:42:36;;;;;;;14.93;9.07;;;6.30;99.90;;;;;;5055754;28;20201;-58
2022/01/22 05:45:04;;;;;;;15.33;9.07;;;6.30;99.90;;;;;;5055550;28;20630;-58
2022/01/22 05:47:31;;;;;;;14.70;8.73;;;6.30;99.90;;;;;;5055424;28;20284;-58
2022/01/22 05:50:00;;;;;;;15.03;8.90;;;6.30;99.90;;;;;;5055504;28;20266;-58
2022/01/22 05:52:33;;;;;;;12.77;9.07;;;6.30;99.90;;;;;;5055816;28;20210;-58
2022/01/22 06:00:37;;;;;;;14.77;8.93;;;6.30;99.90;;;;;;5055541;28;20575;-57
2022/01/22 06:03:04;;;;;;;12.20;8.77;;;6.30;99.90;;;;;;5055201;28;20670;-57
2022/01/22 06:05:32;;;;;;;15.27;9.77;;;6.30;99.90;;;;;;5055067;28;20237;-58
2022/01/22 06:07:58;;;;;;;15.90;9.67;;;6.20;99.90;;;;;;5055253;28;20256;-57
2022/01/22 06:10:28;;;;;;;17.37;9.40;;;6.10;99.90;;;;;;5055141;28;20302;-57
2022/01/22 06:13:11;;;;;;;17.97;10.17;;;6.00;99.90;;;;;;5055189;28;20216;-58
2022/01/22 06:15:37;;;;;;;12.93;8.70;;;6.10;99.90;;;;;;5054880;28;20226;-57
2022/01/22 06:18:04;;;;;;;14.07;9.87;;;6.10;99.90;;;;;;5055456;28;20213;-57
2022/01/22 06:20:33;;;;;;;14.10;8.90;;;6.10;99.90;;;;;;5055007;28;20209;-57
2022/01/22 06:22:59;;;;;;;14.30;9.17;;;6.20;99.90;;;;;;5055297;28;20206;-57
2022/01/22 06:25:26;;;;;;;16.37;10.10;;;6.20;99.90;;;;;;5054815;28;20221;-57
2022/01/22 06:27:53;;;;;;;14.83;9.17;;;6.20;99.90;;;;;;5055163;28;20267;-58
2022/01/22 06:30:20;;;;;;;16.17;9.20;;;6.30;99.90;;;;;;5054745;28;20769;-58
2022/01/22 06:32:47;;;;;;;13.27;9.20;;;6.30;99.90;;;;;;5055019;28;20248;-57
2022/01/22 06:35:14;;;;;;;13.77;9.17;;;6.30;99.90;;;;;;5054384;28;20643;-57
2022/01/22 06:37:42;;;;;;;12.43;9.33;;;6.30;99.90;;;;;;5054887;28;20235;-57
2022/01/22 06:42:56;;;;;;;14.80;10.00;;;6.30;99.90;;;;;;5028727;28;20284;-58
2022/01/22 06:45:23;;;;;;;12.20;9.40;;;6.30;99.90;;;;;;5053942;28;20351;-58
2022/01/22 06:47:49;;;;;;;17.37;9.97;;;6.30;99.90;;;;;;5053894;28;20205;-58
2022/01/22 06:50:18;;;;;;;15.00;9.73;;;6.40;99.90;;;;;;5054501;28;20225;-58
2022/01/22 06:52:46;;;;;;;11.43;8.90;;;6.30;99.90;;;;;;5054545;28;20287;-58
2022/01/22 06:55:16;;;;;;;19.33;10.33;;;6.30;99.90;;;;;;5053920;28;20260;-58
2022/01/22 06:57:43;;;;;;;12.97;9.27;;;6.30;99.90;;;;;;5054370;28;20255;-58
2022/01/22 07:00:10;;;;;;;14.47;9.73;;;6.30;99.90;;;;;;5054426;28;20259;-58
2022/01/22 07:02:37;;;;;;;14.80;9.27;;;6.40;99.90;;;;;;5054694;28;20668;-58
2022/01/22 07:05:04;;;;;;;16.27;9.53;;;6.40;99.90;;;;;;5054494;28;20208;-58
2022/01/22 07:07:31;;;;;;;11.27;8.27;;;6.40;99.90;;;;;;5054330;28;20232;-58
2022/01/22 07:09:59;;;;;;;13.73;9.23;;;6.40;99.90;;;;;;5054386;28;20280;-58
2022/01/22 07:12:26;;;;;;;15.83;9.80;;;6.40;99.90;;;;;;5054098;28;20205;-58
2022/01/22 07:14:53;;;;;;;15.07;9.43;;;6.40;99.90;;;;;;5053920;28;20217;-58
2022/01/22 07:17:19;;;;;;;14.07;10.47;;;6.50;99.90;;;;;;5053866;28;20217;-59
2022/01/22 07:19:46;;;;;;;21.33;15.00;;;6.50;99.90;;;;;;5053922;28;20205;-58
2022/01/22 07:22:33;;;;;;;16.43;9.90;;;6.50;99.90;;;;;;5053740;28;20205;-58
2022/01/22 07:25:01;;;;;;;13.90;8.90;;;6.50;99.90;;;;;;5053971;28;20201;-58
2022/01/22 07:27:27;;;;;;;12.37;8.93;;;6.50;99.90;;;;;;5053511;28;20665;-58
2022/01/22 07:29:54;;;;;;;18.23;9.60;;;6.50;99.90;;;;;;5053743;28;20225;-58
2022/01/22 07:32:29;;;;;;;16.67;8.87;;;6.40;99.90;;;;;;5053681;28;20205;-58
2022/01/22 07:34:56;;;;;;;13.80;9.10;;;6.30;99.90;;;;;;5053788;28;20267;-58
2022/01/22 07:37:23;;;;;;;13.00;9.20;;;6.40;99.90;;;;;;5053545;28;20210;-58
2022/01/22 07:39:50;;;;;;;12.83;9.20;;;6.40;99.90;;;;;;5053747;28;20221;-58
2022/01/22 07:42:18;;;;;;;14.23;8.53;;;6.40;99.90;;;;;;5053582;28;20636;-58
2022/01/22 07:44:45;;;;;;;13.93;9.63;;;6.40;99.90;;;;;;5053344;28;20268;-59
2022/01/22 07:47:12;;;;;;;13.20;8.47;;;6.40;99.90;;;;;;5052997;28;20225;-61
2022/01/22 07:49:38;;;;;;;16.07;8.87;;;6.50;99.90;;;;;;5053373;28;20238;-57
2022/01/22 07:52:06;;;;;;;14.67;8.80;;;6.50;99.90;;;;;;5053353;28;20210;-57
2022/01/22 07:54:33;;;;;;;14.00;9.27;;;6.60;99.90;;;;;;5053267;28;20275;-58
2022/01/22 07:57:02;;;;;;;11.80;9.13;;;6.60;99.90;;;;;;5052717;28;20280;-58
2022/01/22 07:59:30;;;;;;;15.57;9.27;;;6.70;99.90;;;;;;5053210;28;20210;-57
2022/01/22 08:01:57;;;;;;;14.10;9.27;;;6.70;99.90;;;;;;5053001;28;20260;-57
2022/01/22 08:04:24;;;;;;;12.50;8.27;;;6.70;99.90;;;;;;5053381;28;20594;-58
2022/01/22 08:06:51;;;;;;;14.90;9.90;;;6.60;99.90;;;;;;5052722;28;20241;-57
2022/01/22 08:09:18;;;;;;;13.90;9.10;;;6.60;99.90;;;;;;5053104;28;20205;-57
2022/01/22 08:11:45;;;;;;;15.57;8.83;;;6.60;99.90;;;;;;5052876;28;20701;-58
2022/01/22 08:14:11;;;;;;;11.60;7.80;;;6.60;99.90;;;;;;5052843;28;20256;-58
2022/01/22 08:16:39;;;;;;;12.97;8.60;;;6.60;99.90;;;;;;5052484;28;20229;-58
2022/01/22 08:19:06;;;;;;;11.20;7.70;;;6.60;99.90;;;;;;5053007;28;20217;-58
2022/01/22 08:21:33;;;;;;;11.87;8.40;;;6.50;99.90;;;;;;5052798;28;20210;-58
2022/01/22 08:24:00;;;;;;;11.50;8.27;;;6.60;99.90;;;;;;5052999;28;20202;-58
2022/01/22 08:26:31;;;;;;;12.17;7.50;;;6.60;99.90;;;;;;5052144;28;20601;-58
2022/01/22 08:29:00;;;;;;;14.77;8.67;;;6.70;99.90;;;;;;5053015;28;20246;-58
2022/01/22 08:31:42;;;;;;;12.77;8.83;;;6.80;99.90;;;;;;5052640;28;20271;-57
2022/01/22 08:36:55;;;;;;;10.97;7.40;;;7.00;99.90;;;;;;5052273;28;20613;-58
2022/01/22 08:39:22;;;;;;;12.93;7.77;;;7.00;99.90;;;;;;5052397;28;20229;-58
2022/01/22 08:41:48;;;;;;;14.15;9.48;;;7.10;99.90;;;;;;5051424;28;20908;-59
2022/01/22 08:44:15;;;;;;;14.67;10.10;;;7.00;99.90;;;;;;5052736;28;20206;-62
2022/01/22 08:46:42;;;;;;;16.33;8.87;;;7.10;99.90;;;;;;5052113;28;20226;-56
2022/01/22 08:49:11;;;;;;;11.00;8.03;;;7.10;99.90;;;;;;5052332;28;20275;-56
2022/01/22 08:51:39;;;;;;;13.93;8.17;;;7.20;99.90;;;;;;5052116;28;20221;-57
2022/01/22 08:54:06;;;;;;;12.23;7.80;;;7.20;99.90;;;;;;5052059;28;20578;-56
2022/01/22 08:56:33;;;;;;;16.70;8.27;;;7.30;99.90;;;;;;5052011;28;20237;-56
2022/01/22 08:59:00;;;;;;;13.90;9.60;;;7.30;99.90;;;;;;5052154;28;20248;-56
2022/01/22 09:01:26;;;;;;;14.47;8.67;;;7.30;99.90;;;;;;5052281;28;20202;-56
2022/01/22 09:03:53;;;;;;;12.43;8.30;;;7.40;99.90;;;;;;5052076;28;20267;-56
2022/01/22 09:06:21;;;;;;;12.50;8.47;;;7.40;99.90;;;;;;5051635;28;20240;-56
2022/01/22 09:08:50;;;;;;;10.87;7.50;;;7.40;99.90;;;;;;5051738;28;20206;-56
2022/01/22 09:11:17;;;;;;;12.13;8.27;;;7.40;99.90;;;;;;5051705;28;20607;-56
2022/01/22 09:13:44;;;;;;;12.70;8.43;;;7.30;99.90;;;;;;5051851;28;20232;-56
2022/01/22 09:16:11;;;;;;;15.30;7.93;;;7.30;99.90;;;;;;5051586;28;20221;-56
2022/01/22 09:18:38;;;;;;;15.83;9.27;;;7.30;99.90;;;;;;5051555;28;20201;-56
2022/01/22 09:21:06;;;;;;;9.97;8.40;;;7.30;99.90;;;;;;5051634;28;20206;-56
2022/01/22 09:23:34;;;;;;;12.93;8.77;;;7.30;99.90;;;;;;5052159;28;20201;-56
2022/01/22 09:26:01;;;;;;;11.47;7.53;;;7.40;99.90;;;;;;5051578;28;20225;-57
2022/01/22 09:28:30;;;;;;;14.67;8.57;;;7.40;99.90;;;;;;5051931;28;20210;-56
2022/01/22 09:30:57;;;;;;;13.40;8.17;;;7.40;99.90;;;;;;5051649;28;20780;-57
2022/01/22 09:33:24;;;;;;;12.97;8.20;;;7.30;99.90;;;;;;5051807;28;20205;-57
2022/01/22 09:35:50;;;;;;;11.37;7.67;;;7.30;99.90;;;;;;5051471;28;20642;-57
2022/01/22 09:38:17;;;;;;;12.03;8.40;;;7.40;99.90;;;;;;5052061;28;20263;-56
2022/01/22 09:40:45;;;;;;;13.53;8.50;;;7.40;99.90;;;;;;5051660;28;20700;-57
2022/01/22 09:43:13;;;;;;;13.90;7.87;;;7.50;99.90;;;;;;5051817;28;20202;-57
2022/01/22 09:45:40;;;;;;;14.33;7.77;;;7.40;99.90;;;;;;5051582;28;20221;-57
2022/01/22 09:48:07;;;;;;;12.97;8.30;;;7.40;99.90;;;;;;5051695;28;20210;-58
2022/01/22 09:50:35;;;;;;;9.97;7.90;;;7.40;99.90;;;;;;5051688;28;20236;-56
2022/01/22 09:53:02;;;;;;;10.93;8.00;;;7.40;99.90;;;;;;5051666;28;20213;-57
2022/01/22 09:55:29;;;;;;;11.83;7.97;;;7.50;99.90;;;;;;5051422;28;20229;-56
2022/01/22 09:57:58;;;;;;;15.57;8.50;;;7.50;99.90;;;;;;5051793;28;20205;-56
2022/01/22 10:00:26;;;;;;;14.50;8.03;;;7.50;99.90;;;;;;5051263;28;20270;-56
2022/01/22 10:02:54;;;;;;;12.90;7.83;;;7.50;99.90;;;;;;5051622;28;20202;-57
2022/01/22 10:05:31;;;;;;;12.37;8.00;;;7.50;99.90;;;;;;5051160;28;20236;-57
2022/01/22 10:08:24;;;;;;;14.37;7.83;;;7.60;99.90;;;;;;5051444;28;20213;-57
2022/01/22 10:10:52;;;;;;;11.30;7.27;;;7.60;99.90;;;;;;5051672;28;20317;-57
2022/01/22 10:13:41;;;;;;;10.37;7.77;;;7.60;99.90;;;;;;5051504;28;20213;-57
2022/01/22 10:16:19;;;;;;;13.90;7.97;;;7.50;99.90;;;;;;5051106;28;20225;-57
2022/01/22 10:18:46;;;;;;;14.53;8.83;;;7.50;99.90;;;;;;5051376;28;20245;-57
2022/01/22 10:21:15;;;;;;;10.97;7.43;;;7.60;99.90;;;;;;5053111;28;20212;-57
2022/01/22 10:23:42;;;;;;;14.70;8.13;;;7.50;99.90;;;;;;5054928;28;20210;-57
2022/01/22 10:26:13;;;;;;;13.23;7.77;;;7.50;99.90;;;;;;5054482;28;20751;-57
2022/01/22 10:28:45;;;;;;;14.43;8.30;;;7.60;99.90;;;;;;5055154;28;20213;-57
2022/01/22 10:31:20;;;;;;;10.57;7.33;;;7.60;99.90;;;;;;5054684;28;20218;-57
2022/01/22 10:34:05;;;;;;;14.43;8.30;;;7.70;99.90;;;;;;5054640;28;20201;-57
2022/01/22 10:36:32;;;;;;;17.63;8.17;;;7.70;99.90;;;;;;5054612;28;20233;-57
2022/01/22 10:38:59;;;;;;;14.70;8.90;;;7.70;99.90;;;;;;5054971;28;20301;-57
2022/01/22 10:41:34;;;;;;;11.93;7.83;;;7.70;99.90;;;;;;5054762;28;20206;-57
2022/01/22 10:44:03;;;;;;;13.80;8.87;;;7.70;99.90;;;;;;5054930;28;20240;-57
2022/01/22 10:46:44;;;;;;;12.37;7.60;;;7.80;99.90;;;;;;5054169;28;20236;-57
2022/01/22 10:49:13;;;;;;;14.80;8.17;;;7.80;99.90;;;;;;5054632;28;20206;-56
2022/01/22 10:51:49;;;;;;;12.47;8.07;;;7.80;99.90;;;;;;5054493;28;20704;-56
2022/01/22 10:54:16;;;;;;;13.70;7.77;;;7.80;99.90;;;;;;5054669;28;20209;-56
2022/01/22 10:56:43;;;;;;;15.10;8.37;;;7.80;99.90;;;;;;5053902;28;20638;-56
2022/01/22 10:59:13;;;;;;;12.83;7.93;;;7.90;99.90;;;;;;5054326;28;20839;-57
2022/01/22 11:01:50;;;;;;;13.93;8.07;;;7.90;99.90;;;;;;5054445;28;20198;-56
2022/01/22 11:04:20;;;;;;;12.90;7.53;;;7.90;99.90;;;;;;5054097;28;20669;-56
2022/01/22 11:06:53;;;;;;;13.83;8.77;;;8.00;99.90;;;;;;5077974;22;20226;-56
2022/01/22 11:09:21;;;;;;;17.13;8.83;;;8.00;99.90;;;;;;5053799;28;20202;-56
2022/01/22 11:11:48;;;;;;;12.90;8.03;;;8.00;99.90;;;;;;5054173;28;20230;-56
2022/01/22 11:14:17;;;;;;;11.43;8.43;;;7.90;99.90;;;;;;5053966;28;20245;-55
2022/01/22 11:16:46;;;;;;;22.47;14.10;;;7.90;99.90;;;;;;5053942;28;20234;-55
2022/01/22 11:19:15;;;;;;;18.13;11.73;;;7.90;99.90;;;;;;5053625;28;20208;-54
2022/01/22 11:21:46;;;;;;;11.23;8.63;;;8.00;99.90;;;;;;5054138;28;20207;-54
2022/01/22 11:24:13;;;;;;;13.50;8.47;;;8.10;99.90;;;;;;5054040;28;20289;-56
2022/01/22 11:26:40;;;;;;;13.30;8.67;;;8.00;99.90;;;;;;5053748;28;20283;-54
2022/01/22 11:29:07;;;;;;;20.50;12.73;;;8.00;99.90;;;;;;5054156;28;20213;-55
2022/01/22 11:31:37;;;;;;;13.30;8.13;;;8.10;99.90;;;;;;5053679;28;20266;-54
2022/01/22 11:34:05;;;;;;;17.23;8.73;;;8.20;99.90;;;;;;5053611;28;20210;-54
2022/01/22 11:36:39;;;;;;;14.40;8.17;;;8.30;99.90;;;;;;5053479;28;20221;-54
2022/01/22 11:39:06;;;;;;;12.37;7.53;;;8.30;99.90;;;;;;5053826;28;20209;-55
2022/01/22 11:41:33;;;;;;;15.77;7.97;;;8.40;99.90;;;;;;5054012;28;20217;-55
2022/01/22 11:44:08;;;;;;;11.27;7.73;;;8.40;99.90;;;;;;5053915;28;20210;-55
2022/01/22 11:46:41;;;;;;;12.68;8.00;;;8.40;99.90;;;;;;5052837;28;20535;-62
2022/01/22 11:49:16;;;;;;;15.20;7.60;;;8.50;99.90;;;;;;5051868;28;20661;-56
2022/01/22 11:51:45;;;;;;;8.90;6.93;;;8.50;99.90;;;;;;5053274;28;20279;-60
2022/01/22 11:54:13;;;;;;;17.03;11.70;;;8.60;99.90;;;;;;5053158;28;20689;-60
2022/01/22 11:56:45;;;;;;;10.77;6.90;;;8.70;99.90;;;;;;5052840;28;20229;-58
2022/01/22 11:59:20;;;;;;;9.57;6.53;;;8.70;99.90;;;;;;5053368;28;20233;-59
2022/01/22 12:01:54;;;;;;;11.10;6.73;;;8.70;99.90;;;;;;5053603;28;20201;-59
2022/01/22 12:04:22;;;;;;;11.30;6.60;;;8.70;99.90;;;;;;5053619;28;20292;-61
2022/01/22 12:07:13;;;;;;;13.43;6.47;;;8.70;99.90;;;;;;5052541;28;20295;-60
2022/01/22 12:09:50;;;;;;;11.53;6.70;;;8.70;99.90;;;;;;5052848;28;20621;-58
2022/01/22 12:15:11;;;;;;;27.10;17.37;;;8.60;99.90;;;;;;5053414;28;20236;-59
2022/01/22 12:18:11;;;;;;;15.17;6.80;;;8.50;99.90;;;;;;5052474;28;20209;-63
2022/01/22 12:23:53;;;;;;;10.60;6.43;;;8.40;99.90;;;;;;5051853;28;20258;-54
2022/01/22 12:26:50;;;;;;;12.03;6.60;;;8.40;99.90;;;;;;5052869;28;20229;-54
2022/01/22 12:29:40;;;;;;;10.17;6.47;;;8.30;99.90;;;;;;5053263;28;20205;-54
2022/01/22 12:32:32;;;;;;;11.00;6.10;;;8.20;99.90;;;;;;5052681;28;20660;-54
2022/01/22 12:35:10;;;;;;;12.23;5.90;;;8.10;99.90;;;;;;5053140;28;20210;-54
2022/01/22 12:37:49;;;;;;;11.67;6.73;;;8.10;99.90;;;;;;5052934;28;20259;-54
2022/01/22 12:40:28;;;;;;;9.77;6.37;;;8.20;99.90;;;;;;5052644;28;20274;-54
2022/01/22 12:43:05;;;;;;;11.73;5.90;;;8.20;99.90;;;;;;5052595;28;20197;-54
2022/01/22 12:45:34;;;;;;;11.17;7.00;;;8.30;99.90;;;;;;5051622;28;20660;-54
2022/01/22 12:48:01;;;;;;;10.20;6.20;;;8.40;99.90;;;;;;5051915;28;20700;-54
2022/01/22 12:50:33;;;;;;;11.80;6.30;;;8.30;99.90;;;;;;5052601;28;20217;-54
2022/01/22 12:53:07;;;;;;;9.03;6.33;;;8.40;99.90;;;;;;5052587;28;20229;-54
2022/01/22 12:55:50;;;;;;;9.97;6.30;;;8.40;99.90;;;;;;5052639;28;20251;-54
2022/01/22 12:58:21;;;;;;;11.50;5.97;;;8.40;99.90;;;;;;5052675;28;20216;-55
2022/01/22 13:00:48;;;;;;;9.97;6.57;;;8.30;99.90;;;;;;5053068;28;20288;-54
2022/01/22 13:03:31;;;;;;;12.87;7.30;;;8.30;99.90;;;;;;5053101;28;20209;-54
2022/01/22 13:05:59;;;;;;;10.67;5.93;;;8.40;99.90;;;;;;5052125;28;20240;-55
2022/01/22 13:08:28;;;;;;;11.00;6.03;;;8.40;99.90;;;;;;5052452;28;20206;-55
2022/01/22 13:10:59;;;;;;;11.33;6.43;;;8.50;99.90;;;;;;5052747;28;20212;-54
2022/01/22 13:13:26;;;;;;;13.40;7.77;;;8.50;99.90;;;;;;5052087;28;20645;-54
2022/01/22 13:16:02;;;;;;;9.73;6.83;;;8.50;99.90;;;;;;5051974;28;20229;-54
2022/01/22 13:18:44;;;;;;;12.00;6.40;;;8.40;99.90;;;;;;5052329;28;20665;-54
2022/01/22 13:21:13;;;;;;;10.23;6.20;;;8.50;99.90;;;;;;5052231;28;20209;-54
2022/01/22 13:23:41;;;;;;;9.07;6.37;;;8.50;99.90;;;;;;5051655;28;20673;-54
2022/01/22 13:26:08;;;;;;;12.00;6.67;;;8.40;99.90;;;;;;5051731;28;20439;-55
2022/01/22 13:28:37;;;;;;;9.67;6.47;;;8.40;99.90;;;;;;5051776;28;20565;-54
2022/01/22 13:31:12;;;;;;;9.87;6.80;;;8.30;99.90;;;;;;5051692;28;20662;-54
2022/01/22 13:33:45;;;;;;;9.73;6.60;;;8.30;99.90;;;;;;5051746;28;20701;-54
2022/01/22 13:36:24;;;;;;;13.43;7.37;;;8.30;99.90;;;;;;5051723;28;20234;-54
2022/01/22 13:39:19;;;;;;;9.73;7.40;;;8.40;99.90;;;;;;5051928;28;20225;-54
2022/01/22 13:47:46;;;;;;;11.27;6.83;;;8.40;99.90;;;;;;5051502;28;20243;-54
2022/01/22 13:50:13;;;;;;;9.90;6.50;;;8.20;99.90;;;;;;5052106;28;20241;-54
2022/01/22 13:52:43;;;;;;;12.53;6.83;;;8.00;99.90;;;;;;5051551;28;20651;-55
2022/01/22 13:55:13;;;;;;;10.63;7.17;;;8.00;99.90;;;;;;5052037;28;20593;-56
2022/01/22 13:57:42;;;;;;;10.37;7.27;;;8.10;99.90;;;;;;5055457;28;20483;-54
2022/01/22 14:00:12;;;;;;;16.43;10.93;;;8.10;99.90;;;;;;5056070;28;20640;-54
2022/01/22 14:03:06;;;;;;;12.30;7.37;;;8.10;99.90;;;;;;5055535;28;20214;-54
2022/01/22 14:05:33;;;;;;;11.60;7.30;;;8.20;99.90;;;;;;5055284;28;20236;-54
2022/01/22 14:08:05;;;;;;;20.97;12.27;;;8.30;99.90;;;;;;5055254;28;20209;-56
2022/01/22 14:10:33;;;;;;;14.97;8.17;;;8.40;99.90;;;;;;5055506;28;20255;-54
2022/01/22 14:13:06;;;;;;;14.30;8.57;;;8.40;99.90;;;;;;5055501;28;20226;-55
2022/01/22 14:15:36;;;;;;;9.77;7.63;;;8.30;99.90;;;;;;5055306;28;20228;-55
2022/01/22 14:18:15;;;;;;;11.20;7.07;;;8.40;99.90;;;;;;5054961;28;20241;-54
2022/01/22 14:20:44;;;;;;;12.37;7.73;;;8.40;99.90;;;;;;5055158;28;20745;-54